Time;durP1;ratioP1;P1;durP2;ratioP2;P2;SDS_P1;SDS_P2;PMS_P1;PMS_P2;Temp;Humidity;BMP_temperature;BMP_pressure;BME280_temperature;BME280_humidity;BME280_pressure;Samples;Min_cycle;Max_cycle;Signal;HPM_P1;HPM_P2
2022/07/20 00:00:15;;;;;;;2.63;2.20;;;24.90;85.80;;;;;;6182521;28;89131;-65
2022/07/20 00:03:17;;;;;;;3.38;2.20;;;24.90;85.90;;;;;;6174515;28;89099;-64
2022/07/20 00:06:19;;;;;;;2.70;2.20;;;24.90;85.90;;;;;;6158926;28;89069;-64
2022/07/20 00:12:41;;;;;;;3.72;2.28;;;25.00;85.90;;;;;;6174914;28;87249;-65
2022/07/20 00:15:45;;;;;;;2.50;2.30;;;24.90;85.90;;;;;;6165888;28;89309;-65
2022/07/20 00:18:47;;;;;;;2.97;2.30;;;25.00;86.10;;;;;;6164103;28;90075;-65
2022/07/20 00:21:49;;;;;;;3.45;2.28;;;25.00;86.10;;;;;;6159146;28;89575;-65
2022/07/20 00:24:51;;;;;;;4.05;2.53;;;24.90;85.90;;;;;;6174014;28;88121;-65
2022/07/20 00:27:53;;;;;;;3.42;2.38;;;24.90;85.90;;;;;;6182499;28;89542;-65
2022/07/20 00:30:56;;;;;;;2.75;2.53;;;25.00;86.00;;;;;;6179278;28;89322;-65
2022/07/20 00:33:58;;;;;;;2.97;2.42;;;24.90;85.90;;;;;;6183606;28;89163;-65
2022/07/20 00:37:00;;;;;;;2.45;2.20;;;25.00;86.10;;;;;;6175845;28;89120;-64
2022/07/20 00:40:03;;;;;;;2.58;2.28;;;24.90;86.10;;;;;;6176633;28;87595;-65
2022/07/20 00:43:05;;;;;;;2.45;2.25;;;24.90;86.10;;;;;;6176034;28;89059;-64
2022/07/20 00:46:09;;;;;;;2.30;2.10;;;24.90;86.10;;;;;;6176112;28;89053;-64
2022/07/20 00:49:12;;;;;;;2.55;2.30;;;24.90;86.20;;;;;;6175839;28;90034;-65
2022/07/20 00:52:15;;;;;;;2.38;2.17;;;24.90;86.30;;;;;;6174489;28;89594;-65
2022/07/20 00:55:17;;;;;;;4.10;2.53;;;24.90;86.40;;;;;;6166369;28;89031;-64
2022/07/20 00:58:19;;;;;;;2.75;2.30;;;24.90;86.40;;;;;;6158410;28;89070;-65
2022/07/20 01:01:23;;;;;;;2.45;2.20;;;25.00;86.40;;;;;;6169323;28;89088;-64
2022/07/20 01:04:25;;;;;;;3.75;2.55;;;24.90;86.50;;;;;;6157424;28;89356;-64
2022/07/20 01:07:27;;;;;;;3.00;2.70;;;24.90;86.50;;;;;;6170677;28;87997;-64
2022/07/20 01:10:29;;;;;;;2.58;2.38;;;24.90;86.50;;;;;;6159226;28;87250;-65
2022/07/20 01:13:31;;;;;;;2.72;2.53;;;24.90;86.50;;;;;;6156904;28;89142;-64
2022/07/20 01:16:36;;;;;;;2.78;2.40;;;24.90;86.50;;;;;;6167228;28;88045;-65
2022/07/20 01:19:38;;;;;;;3.05;2.70;;;24.90;86.60;;;;;;6167876;28;90484;-65
2022/07/20 01:22:41;;;;;;;2.75;2.45;;;24.90;86.60;;;;;;6169131;28;89012;-65
2022/07/20 01:25:44;;;;;;;2.53;2.33;;;24.90;86.60;;;;;;6158466;28;89193;-65
2022/07/20 01:28:46;;;;;;;3.05;2.50;;;24.90;86.60;;;;;;6167430;28;88763;-64
2022/07/20 01:31:48;;;;;;;2.70;2.50;;;24.90;86.70;;;;;;6181369;28;87966;-64
2022/07/20 01:34:50;;;;;;;2.70;2.40;;;24.90;86.70;;;;;;6181014;28;87915;-65
2022/07/20 01:37:54;;;;;;;2.70;2.40;;;24.90;86.80;;;;;;6180657;28;89248;-65
2022/07/20 01:40:56;;;;;;;4.22;2.50;;;24.90;86.80;;;;;;6181536;28;88387;-65
2022/07/20 01:43:58;;;;;;;2.95;2.60;;;24.90;86.80;;;;;;6166864;28;89444;-64
2022/07/20 01:47:00;;;;;;;3.15;2.85;;;24.90;86.90;;;;;;6174044;28;90306;-65
2022/07/20 01:50:02;;;;;;;2.63;2.40;;;24.90;87.00;;;;;;6169317;28;90472;-65
2022/07/20 01:53:06;;;;;;;3.20;2.63;;;24.90;87.00;;;;;;6157214;28;89148;-65
2022/07/20 01:56:08;;;;;;;2.80;2.60;;;24.90;86.90;;;;;;6171604;28;89126;-65
2022/07/20 01:59:10;;;;;;;2.63;2.42;;;24.90;86.90;;;;;;6164562;28;87967;-65
2022/07/20 02:02:12;;;;;;;3.10;2.80;;;24.90;87.00;;;;;;6162316;28;89081;-65
2022/07/20 02:05:15;;;;;;;3.47;2.85;;;24.90;87.10;;;;;;6184933;28;87972;-65
2022/07/20 02:08:19;;;;;;;3.13;2.65;;;24.90;87.10;;;;;;6161012;28;89098;-65
2022/07/20 02:11:21;;;;;;;2.60;2.40;;;24.90;87.10;;;;;;6172623;28;88433;-65
2022/07/20 02:14:23;;;;;;;3.10;2.80;;;24.90;87.10;;;;;;6163288;28;87889;-65
2022/07/20 02:17:25;;;;;;;2.88;2.67;;;24.90;88.10;;;;;;6160473;28;89068;-65
2022/07/20 02:20:27;;;;;;;3.55;2.75;;;24.90;87.20;;;;;;6168650;28;89956;-65
2022/07/20 02:23:30;;;;;;;2.80;2.45;;;24.90;87.20;;;;;;6174338;28;89183;-65
2022/07/20 02:26:32;;;;;;;2.80;2.60;;;24.90;87.20;;;;;;6168521;28;89120;-65
2022/07/20 02:29:34;;;;;;;3.40;3.10;;;24.90;87.30;;;;;;6178555;28;87951;-64
2022/07/20 02:32:36;;;;;;;3.10;2.70;;;24.90;87.30;;;;;;6161583;28;87988;-65
2022/07/20 02:35:38;;;;;;;2.88;2.67;;;24.90;87.30;;;;;;6168793;28;89093;-67
2022/07/20 02:38:42;;;;;;;3.17;2.88;;;24.90;87.40;;;;;;6178128;28;89011;-67
2022/07/20 02:41:44;;;;;;;3.05;2.67;;;24.90;87.40;;;;;;6184431;28;88360;-67
2022/07/20 02:44:46;;;;;;;3.53;2.95;;;24.90;87.40;;;;;;6181390;28;89365;-65
2022/07/20 02:47:48;;;;;;;3.22;2.92;;;24.90;87.40;;;;;;6165616;28;89055;-65
2022/07/20 02:50:50;;;;;;;2.88;2.65;;;24.90;87.50;;;;;;6183574;28;90551;-65
2022/07/20 02:53:54;;;;;;;3.30;2.78;;;24.90;87.60;;;;;;6177897;28;91145;-65
2022/07/20 02:56:56;;;;;;;2.83;2.63;;;24.90;87.60;;;;;;6183170;28;88854;-65
2022/07/20 02:59:58;;;;;;;3.95;3.20;;;24.90;87.60;;;;;;6172163;28;88022;-65
2022/07/20 03:03:00;;;;;;;3.08;2.78;;;24.90;87.70;;;;;;6183716;28;89224;-65
2022/07/20 03:06:02;;;;;;;2.80;2.60;;;24.90;87.70;;;;;;6170804;28;89764;-65
2022/07/20 03:09:05;;;;;;;2.85;2.65;;;24.90;87.70;;;;;;6182564;28;89095;-65
2022/07/20 03:12:08;;;;;;;2.72;2.53;;;24.90;87.70;;;;;;6178491;28;88301;-65
2022/07/20 03:15:11;;;;;;;2.90;2.60;;;24.90;87.70;;;;;;6175659;28;89032;-65
2022/07/20 03:18:13;;;;;;;3.90;2.60;;;24.90;87.70;;;;;;6179817;28;89582;-65
2022/07/20 03:21:15;;;;;;;3.42;3.13;;;24.90;87.70;;;;;;6172306;28;90053;-65
2022/07/20 03:24:19;;;;;;;3.60;3.00;;;24.90;87.80;;;;;;6172208;28;89032;-67
2022/07/20 03:27:21;;;;;;;3.53;3.22;;;24.90;87.80;;;;;;6183049;28;89033;-67
2022/07/20 03:30:24;;;;;;;3.03;2.83;;;24.90;87.80;;;;;;6174114;28;89117;-67
2022/07/20 03:33:26;;;;;;;3.28;2.97;;;24.90;87.80;;;;;;6180382;28;89015;-65
2022/07/20 03:36:28;;;;;;;3.08;2.78;;;24.90;87.90;;;;;;6170468;28;89076;-65
2022/07/20 03:39:31;;;;;;;3.03;2.72;;;24.90;87.90;;;;;;6171273;28;89107;-64
2022/07/20 03:42:34;;;;;;;3.00;2.72;;;24.90;87.90;;;;;;6174951;28;88292;-65
2022/07/20 03:45:36;;;;;;;3.30;3.00;;;24.90;87.90;;;;;;6191541;28;89449;-64
2022/07/20 03:48:38;;;;;;;3.13;2.90;;;24.90;88.00;;;;;;6183606;28;89018;-64
2022/07/20 03:51:40;;;;;;;2.85;2.65;;;24.90;88.00;;;;;;6170617;28;89979;-65
2022/07/20 03:54:44;;;;;;;3.13;2.80;;;24.90;88.00;;;;;;6170907;28;89159;-64
2022/07/20 03:57:46;;;;;;;2.97;2.78;;;24.90;88.00;;;;;;6158899;28;89285;-65
2022/07/20 04:00:48;;;;;;;3.13;2.80;;;24.90;88.00;;;;;;6169582;28;89153;-65
2022/07/20 04:03:50;;;;;;;3.40;3.10;;;24.90;88.00;;;;;;6187782;28;89028;-65
2022/07/20 04:06:52;;;;;;;4.43;3.13;;;24.90;88.10;;;;;;6183157;28;89085;-65
2022/07/20 04:09:55;;;;;;;3.58;3.10;;;24.90;88.10;;;;;;6162934;28;89070;-65
2022/07/20 04:12:57;;;;;;;3.42;3.13;;;24.90;88.10;;;;;;6159682;28;88418;-65
2022/07/20 04:15:59;;;;;;;3.17;2.88;;;24.90;88.10;;;;;;6179947;28;89154;-65
2022/07/20 04:19:01;;;;;;;3.33;3.03;;;24.90;88.20;;;;;;6172352;28;89067;-65
2022/07/20 04:22:04;;;;;;;4.00;3.20;;;24.90;88.20;;;;;;6169963;28;90388;-65
2022/07/20 04:25:08;;;;;;;3.88;3.13;;;24.90;88.20;;;;;;6170394;28;89286;-65
2022/07/20 04:28:10;;;;;;;4.57;3.00;;;24.90;88.20;;;;;;6158495;28;89145;-65
2022/07/20 04:31:12;;;;;;;3.30;3.00;;;24.90;88.30;;;;;;6164829;28;89043;-65
2022/07/20 04:34:14;;;;;;;3.00;2.78;;;24.90;88.30;;;;;;6168136;28;88246;-65
2022/07/20 04:37:16;;;;;;;3.00;2.72;;;24.90;88.30;;;;;;6167510;28;89104;-65
2022/07/20 04:40:19;;;;;;;3.55;3.20;;;24.90;88.30;;;;;;6170846;28;89040;-65
2022/07/20 04:43:23;;;;;;;4.57;3.58;;;24.90;88.30;;;;;;6181083;28;88185;-64
2022/07/20 04:46:25;;;;;;;3.47;3.17;;;24.90;88.30;;;;;;6182026;28;89929;-65
2022/07/20 04:49:27;;;;;;;3.50;3.20;;;24.90;88.30;;;;;;6175891;28;89222;-64
2022/07/20 04:52:29;;;;;;;3.25;2.95;;;24.90;88.30;;;;;;6156552;28;90109;-64
2022/07/20 04:55:32;;;;;;;3.45;3.15;;;25.00;88.40;;;;;;6175028;28;87969;-65
2022/07/20 04:58:34;;;;;;;3.42;3.13;;;25.00;88.40;;;;;;6177126;28;89060;-64
2022/07/20 05:01:36;;;;;;;3.95;2.80;;;24.90;88.40;;;;;;6172399;28;89391;-65
2022/07/20 05:04:38;;;;;;;3.58;3.28;;;24.90;88.40;;;;;;6171559;28;89535;-65
2022/07/20 05:07:40;;;;;;;3.30;3.00;;;25.00;88.40;;;;;;6172960;28;89001;-64
2022/07/20 05:10:43;;;;;;;3.25;2.95;;;24.90;88.40;;;;;;6164284;28;89310;-65
2022/07/20 05:13:45;;;;;;;3.35;3.05;;;25.00;88.40;;;;;;6160919;28;88545;-64
2022/07/20 05:16:48;;;;;;;4.47;3.15;;;25.00;88.50;;;;;;6159644;28;89083;-64
2022/07/20 05:19:49;;;;;;;3.78;2.90;;;25.00;88.50;;;;;;6161690;28;89183;-65
2022/07/20 05:22:51;;;;;;;3.47;3.17;;;24.90;88.50;;;;;;6170267;28;90044;-65
2022/07/20 05:25:55;;;;;;;3.30;3.00;;;24.90;88.50;;;;;;6165323;28;89961;-65
2022/07/20 05:28:57;;;;;;;3.60;3.20;;;25.00;88.60;;;;;;6167354;28;89430;-65
2022/07/20 05:31:59;;;;;;;4.18;3.10;;;25.00;88.70;;;;;;6167718;28;89247;-65
2022/07/20 05:35:01;;;;;;;3.55;3.00;;;25.00;88.80;;;;;;6179885;28;89599;-64
2022/07/20 05:38:03;;;;;;;3.47;3.10;;;25.00;88.70;;;;;;6178788;28;89511;-65
2022/07/20 05:41:07;;;;;;;3.53;3.22;;;25.00;88.80;;;;;;6178050;28;90227;-65
2022/07/20 05:44:09;;;;;;;3.67;3.30;;;25.00;88.70;;;;;;6170138;28;88172;-65
2022/07/20 05:47:11;;;;;;;3.70;3.35;;;25.00;88.70;;;;;;6180108;28;89076;-65
2022/07/20 05:50:13;;;;;;;3.40;3.10;;;25.00;88.70;;;;;;6167964;28;89008;-65
2022/07/20 05:53:15;;;;;;;3.22;3.00;;;25.00;88.80;;;;;;6166371;28;89773;-65
2022/07/20 05:56:18;;;;;;;3.30;3.05;;;25.00;88.80;;;;;;6175044;28;89027;-65
2022/07/20 05:59:20;;;;;;;3.50;3.20;;;25.00;88.80;;;;;;6170215;28;89124;-65
2022/07/20 06:02:22;;;;;;;4.30;3.35;;;25.00;88.80;;;;;;6157947;28;89046;-64
2022/07/20 06:05:24;;;;;;;3.53;3.22;;;25.00;88.80;;;;;;6157848;28;89389;-65
2022/07/20 06:08:26;;;;;;;3.90;3.50;;;25.00;89.80;;;;;;6160301;28;87956;-65
2022/07/20 06:11:29;;;;;;;3.60;3.20;;;25.10;89.00;;;;;;6168135;28;89456;-65
2022/07/20 06:14:31;;;;;;;3.30;3.00;;;25.00;88.90;;;;;;6180613;28;88384;-65
2022/07/20 06:17:35;;;;;;;3.20;2.92;;;25.00;88.90;;;;;;6169211;28;89097;-65
2022/07/20 06:20:37;;;;;;;3.40;3.10;;;25.10;89.10;;;;;;6164722;28;88148;-65
2022/07/20 06:23:39;;;;;;;3.75;3.03;;;25.00;88.80;;;;;;6177702;28;90108;-65
2022/07/20 06:26:42;;;;;;;3.97;3.67;;;25.10;88.90;;;;;;6179566;28;89095;-65
2022/07/20 06:29:44;;;;;;;3.80;3.25;;;25.00;88.80;;;;;;6180027;28;89102;-65
2022/07/20 06:32:46;;;;;;;3.33;3.03;;;25.10;88.80;;;;;;6168891;28;89081;-66
2022/07/20 06:35:48;;;;;;;3.63;3.13;;;25.10;88.90;;;;;;6166384;28;88320;-65
2022/07/20 06:38:50;;;;;;;3.50;3.20;;;25.10;88.90;;;;;;6179526;28;89357;-65
2022/07/20 06:41:54;;;;;;;3.80;3.50;;;25.10;88.90;;;;;;6179112;28;89076;-65
2022/07/20 06:44:56;;;;;;;3.65;3.30;;;25.10;88.90;;;;;;6181043;28;88508;-65
2022/07/20 06:47:58;;;;;;;3.40;2.85;;;25.10;88.90;;;;;;6183141;28;89136;-65
2022/07/20 06:51:00;;;;;;;3.38;3.08;;;25.00;88.80;;;;;;6170166;28;88281;-65
2022/07/20 06:54:02;;;;;;;3.60;3.30;;;25.10;89.20;;;;;;6182264;28;90470;-65
2022/07/20 06:57:05;;;;;;;3.50;3.20;;;25.10;89.00;;;;;;6173115;28;88147;-65
2022/07/20 07:00:08;;;;;;;4.97;3.88;;;25.10;89.10;;;;;;6165924;28;89091;-65
2022/07/20 07:03:10;;;;;;;3.83;3.42;;;25.10;89.10;;;;;;6159806;28;89098;-65
2022/07/20 07:06:12;;;;;;;3.53;3.22;;;25.10;89.10;;;;;;6171892;28;89487;-65
2022/07/20 07:09:14;;;;;;;3.55;3.08;;;25.10;89.10;;;;;;6159721;28;89123;-65
2022/07/20 07:12:18;;;;;;;3.33;3.03;;;25.10;89.10;;;;;;6173431;28;89185;-65
2022/07/20 07:15:20;;;;;;;4.47;3.08;;;25.10;89.10;;;;;;6159014;28;88237;-65
2022/07/20 07:18:22;;;;;;;4.10;3.40;;;25.20;89.20;;;;;;6159980;28;89030;-65
2022/07/20 07:21:24;;;;;;;3.40;3.10;;;25.10;89.20;;;;;;6173237;28;89250;-65
2022/07/20 07:24:26;;;;;;;3.50;3.20;;;25.10;89.30;;;;;;6161473;28;89974;-65
2022/07/20 07:27:29;;;;;;;3.55;3.25;;;25.10;89.40;;;;;;6173008;28;89118;-65
2022/07/20 07:30:33;;;;;;;3.55;3.25;;;25.10;89.40;;;;;;6163894;28;89455;-65
2022/07/20 07:33:35;;;;;;;3.60;3.30;;;25.10;89.50;;;;;;6166186;28;88103;-65
2022/07/20 07:36:37;;;;;;;3.50;3.20;;;25.10;89.60;;;;;;6165561;28;89031;-65
2022/07/20 07:39:39;;;;;;;4.25;3.50;;;25.10;89.60;;;;;;6173125;28;89107;-65
2022/07/20 07:42:42;;;;;;;5.00;3.50;;;25.10;89.70;;;;;;6173887;28;89048;-65
2022/07/20 07:45:44;;;;;;;3.45;3.15;;;25.10;89.80;;;;;;6166547;28;88337;-66
2022/07/20 07:48:47;;;;;;;3.80;3.42;;;25.10;89.80;;;;;;6178001;28;89062;-65
2022/07/20 07:51:49;;;;;;;4.38;3.08;;;25.20;89.90;;;;;;6174446;28;89208;-65
2022/07/20 07:54:51;;;;;;;4.45;3.35;;;25.20;89.90;;;;;;6168577;28;90136;-65
2022/07/20 07:57:54;;;;;;;3.63;3.13;;;25.20;90.00;;;;;;6168973;28;89350;-65
2022/07/20 08:00:56;;;;;;;3.78;3.20;;;25.20;90.00;;;;;;6158562;28;89063;-65
2022/07/20 08:03:58;;;;;;;4.25;3.50;;;25.20;90.00;;;;;;6168570;28;89159;-65
2022/07/20 08:07:00;;;;;;;3.70;3.40;;;25.20;90.10;;;;;;6169960;28;89016;-65
2022/07/20 08:10:02;;;;;;;3.47;3.13;;;25.20;90.10;;;;;;6188824;28;89360;-66
2022/07/20 08:13:05;;;;;;;3.63;3.30;;;25.10;90.10;;;;;;6163544;28;88957;-65
2022/07/20 08:16:08;;;;;;;3.72;3.15;;;25.20;90.20;;;;;;6173800;28;88351;-65
2022/07/20 08:19:10;;;;;;;4.20;3.40;;;25.20;90.20;;;;;;6163120;28;89212;-65
2022/07/20 08:22:12;;;;;;;4.45;3.28;;;25.20;90.30;;;;;;6178893;28;89590;-66
2022/07/20 08:25:14;;;;;;;3.63;3.33;;;25.20;90.40;;;;;;6181658;28;90089;-65
2022/07/20 08:28:20;;;;;;;4.07;3.60;;;25.20;90.30;;;;;;6179713;28;89188;-65
2022/07/20 08:31:22;;;;;;;4.60;3.50;;;25.20;90.30;;;;;;6180116;28;89619;-65
2022/07/20 08:34:24;;;;;;;4.82;3.50;;;25.20;90.30;;;;;;6171429;28;89114;-66
2022/07/20 08:37:26;;;;;;;4.70;3.40;;;25.20;90.40;;;;;;6179980;28;87888;-65
2022/07/20 08:40:29;;;;;;;3.90;3.50;;;25.20;90.30;;;;;;6178680;28;90513;-65
2022/07/20 08:43:32;;;;;;;4.00;3.60;;;25.20;90.50;;;;;;6174838;28;87961;-65
2022/07/20 08:46:35;;;;;;;4.28;3.88;;;25.20;90.60;;;;;;6163501;28;88347;-65
2022/07/20 08:49:38;;;;;;;4.38;3.42;;;25.20;90.70;;;;;;6180091;28;89125;-65
2022/07/20 08:52:40;;;;;;;4.60;3.60;;;25.20;90.80;;;;;;6165688;28;89357;-65
2022/07/20 08:55:42;;;;;;;3.90;3.47;;;25.20;90.90;;;;;;6170644;28;90004;-65
2022/07/20 08:58:46;;;;;;;3.78;3.33;;;25.20;90.90;;;;;;6176331;28;89082;-65
2022/07/20 09:02:01;;;;;;;3.90;3.60;;;25.20;90.90;;;;;;6173280;28;89131;-65
2022/07/20 09:05:05;;;;;;;4.75;3.50;;;25.20;91.00;;;;;;6168091;28;89134;-65
2022/07/20 09:08:11;;;;;;;4.10;3.70;;;25.20;91.10;;;;;;6170643;28;89405;-65
2022/07/20 09:11:14;;;;;;;4.13;3.72;;;25.20;91.20;;;;;;6165627;28;89065;-65
2022/07/20 09:14:36;;;;;;;3.95;3.30;;;25.20;91.10;;;;;;6169443;28;89302;-65
2022/07/20 09:17:38;;;;;;;4.10;3.60;;;25.20;91.20;;;;;;6171742;28;88880;-65
2022/07/20 09:20:42;;;;;;;3.83;3.33;;;25.30;91.30;;;;;;6169546;28;89212;-66
2022/07/20 09:23:52;;;;;;;4.38;3.53;;;25.20;91.20;;;;;;6159176;28;88303;-65
2022/07/20 09:27:04;;;;;;;3.95;3.63;;;25.30;91.20;;;;;;6172100;28;90097;-65
2022/07/20 09:30:10;;;;;;;5.35;3.90;;;25.20;91.30;;;;;;6163029;28;89146;-65
2022/07/20 09:33:12;;;;;;;4.72;3.97;;;25.30;91.40;;;;;;6162650;28;89973;-66
2022/07/20 09:36:15;;;;;;;4.88;3.67;;;25.30;91.50;;;;;;6159688;28;89111;-65
2022/07/20 09:39:19;;;;;;;6.45;4.00;;;25.30;91.50;;;;;;6171618;28;89603;-65
2022/07/20 09:42:36;;;;;;;4.38;3.95;;;25.20;91.40;;;;;;6169156;28;89061;-65
2022/07/20 09:45:40;;;;;;;4.22;3.83;;;25.30;91.50;;;;;;6171069;28;87983;-65
2022/07/20 09:48:43;;;;;;;4.57;3.80;;;25.30;91.40;;;;;;6157656;28;88350;-65
2022/07/20 09:51:47;;;;;;;4.28;3.58;;;25.30;91.50;;;;;;6159140;28;88001;-65
2022/07/20 09:54:49;;;;;;;4.38;3.58;;;25.30;91.50;;;;;;6168378;28;89368;-65
2022/07/20 09:57:51;;;;;;;4.22;3.53;;;25.30;91.50;;;;;;6167094;28;90014;-65
2022/07/20 10:00:55;;;;;;;4.18;3.60;;;25.30;91.40;;;;;;6166478;28;89221;-65
2022/07/20 10:03:59;;;;;;;4.05;3.65;;;25.30;91.50;;;;;;6183599;28;89083;-65
2022/07/20 10:07:01;;;;;;;5.20;3.90;;;25.30;91.50;;;;;;6184936;28;87825;-65
2022/07/20 10:10:03;;;;;;;3.88;3.55;;;25.30;91.50;;;;;;6175764;28;89111;-66
2022/07/20 10:13:05;;;;;;;3.90;3.60;;;25.30;91.50;;;;;;6162421;28;87938;-65
2022/07/20 10:16:18;;;;;;;5.03;4.03;;;25.30;91.70;;;;;;6170321;28;89549;-65
2022/07/20 10:19:21;;;;;;;4.35;3.95;;;25.30;91.80;;;;;;6160791;28;88717;-66
2022/07/20 10:22:23;;;;;;;4.50;4.10;;;25.30;91.80;;;;;;6180346;28;89099;-65
2022/07/20 10:25:28;;;;;;;4.57;4.00;;;25.30;91.80;;;;;;6178766;28;89075;-66
2022/07/20 10:28:38;;;;;;;5.72;3.95;;;25.40;91.80;;;;;;6164801;28;89923;-65
2022/07/20 10:31:51;;;;;;;4.35;3.90;;;25.40;91.70;;;;;;6167402;28;89240;-65
2022/07/20 10:34:55;;;;;;;6.00;4.10;;;25.40;91.50;;;;;;6161677;28;89245;-65
2022/07/20 10:37:58;;;;;;;5.63;3.83;;;25.40;91.30;;;;;;6181246;28;89129;-65
2022/07/20 10:44:30;;;;;;;4.82;4.05;;;25.40;91.30;;;;;;6173476;28;87346;-65
2022/07/20 10:47:45;;;;;;;4.03;3.72;;;25.30;91.20;;;;;;6172060;28;89021;-65
2022/07/20 10:50:50;;;;;;;4.30;3.90;;;25.40;91.30;;;;;;6170889;28;88275;-66
2022/07/20 10:53:52;;;;;;;5.45;3.90;;;25.40;91.30;;;;;;6163015;28;89366;-65
2022/07/20 10:56:54;;;;;;;4.18;3.72;;;25.40;91.30;;;;;;6171165;28;89083;-65
2022/07/20 11:00:11;;;;;;;4.90;4.25;;;25.40;91.20;;;;;;6167630;28;90079;-65
2022/07/20 11:03:16;;;;;;;4.22;3.83;;;25.40;91.20;;;;;;6159317;28;89177;-65
2022/07/20 11:06:19;;;;;;;4.80;4.15;;;25.40;91.20;;;;;;6172859;28;89194;-65
2022/07/20 11:09:31;;;;;;;4.68;3.78;;;25.40;91.00;;;;;;6161007;28;89247;-65
2022/07/20 11:12:33;;;;;;;4.18;3.88;;;25.40;91.00;;;;;;6182072;28;89061;-65
2022/07/20 11:15:40;;;;;;;4.40;4.00;;;25.40;90.90;;;;;;6172573;28;89102;-66
2022/07/20 11:18:43;;;;;;;5.30;4.15;;;25.40;90.80;;;;;;6159395;28;89316;-65
2022/07/20 11:21:45;;;;;;;5.50;4.05;;;25.40;90.80;;;;;;6173966;28;88690;-66
2022/07/20 11:24:58;;;;;;;4.90;4.00;;;25.40;90.80;;;;;;6170264;28;88074;-65
2022/07/20 11:28:00;;;;;;;4.57;4.13;;;25.40;90.90;;;;;;6165919;28;89145;-65
2022/07/20 11:31:03;;;;;;;4.15;3.80;;;25.40;91.00;;;;;;6170248;28;90049;-65
2022/07/20 11:34:07;;;;;;;6.15;4.07;;;25.50;91.10;;;;;;6172873;28;89210;-65
2022/07/20 11:37:09;;;;;;;4.32;3.92;;;25.40;91.00;;;;;;6183202;28;89366;-65
2022/07/20 11:40:18;;;;;;;4.43;4.03;;;25.40;91.10;;;;;;6164871;28;89079;-65
2022/07/20 11:43:20;;;;;;;4.30;3.90;;;25.50;91.10;;;;;;6172515;28;92169;-65
2022/07/20 11:46:24;;;;;;;4.78;4.00;;;25.50;91.00;;;;;;6181476;28;89125;-65
2022/07/20 11:49:27;;;;;;;4.68;4.05;;;25.50;90.90;;;;;;6161205;28;88860;-66
2022/07/20 11:52:38;;;;;;;4.78;3.83;;;25.50;90.90;;;;;;6186311;28;88339;-65
2022/07/20 11:55:40;;;;;;;4.53;4.13;;;25.50;90.90;;;;;;6179562;28;89072;-66
2022/07/20 11:58:44;;;;;;;5.40;4.20;;;25.50;90.90;;;;;;6159514;28;87906;-65
2022/07/20 12:01:48;;;;;;;6.28;4.13;;;25.50;90.80;;;;;;6170688;28;90544;-65
2022/07/20 12:04:52;;;;;;;5.85;4.20;;;25.50;90.80;;;;;;6172584;28;89121;-65
2022/07/20 12:08:13;;;;;;;5.13;3.92;;;25.50;90.90;;;;;;6169671;28;89085;-65
2022/07/20 12:11:15;;;;;;;5.30;4.10;;;25.50;90.80;;;;;;6171901;28;89181;-65
2022/07/20 12:14:26;;;;;;;4.22;3.83;;;25.50;90.60;;;;;;6170553;28;89072;-65
2022/07/20 12:17:30;;;;;;;4.25;3.85;;;25.50;90.50;;;;;;6170346;28;89112;-65
2022/07/20 12:20:33;;;;;;;4.00;3.70;;;25.50;90.50;;;;;;6191226;28;88174;-66
2022/07/20 12:23:36;;;;;;;4.32;3.92;;;25.50;90.50;;;;;;6179720;28;88915;-66
2022/07/20 12:26:38;;;;;;;4.50;4.00;;;25.50;90.40;;;;;;6180670;28;89004;-66
2022/07/20 12:29:40;;;;;;;4.50;4.03;;;25.50;90.30;;;;;;6179290;28;89396;-65
2022/07/20 12:32:42;;;;;;;4.53;3.92;;;25.50;90.10;;;;;;6177195;28;90045;-66
2022/07/20 12:35:48;;;;;;;4.85;3.85;;;25.50;89.90;;;;;;6176876;28;89113;-65
2022/07/20 12:38:50;;;;;;;4.00;3.70;;;25.50;89.70;;;;;;6169359;28;89263;-65
2022/07/20 12:42:09;;;;;;;4.32;3.92;;;25.50;89.40;;;;;;6176176;28;89046;-66
2022/07/20 12:45:11;;;;;;;5.15;4.00;;;25.60;88.90;;;;;;6182491;28;89089;-66
2022/07/20 12:48:14;;;;;;;4.65;4.13;;;25.50;88.70;;;;;;6172924;28;89031;-65
2022/07/20 12:51:18;;;;;;;4.25;3.83;;;25.60;88.70;;;;;;6170009;28;89638;-65
2022/07/20 12:54:20;;;;;;;4.20;3.88;;;25.50;88.80;;;;;;6171851;28;88395;-66
2022/07/20 12:57:22;;;;;;;4.13;3.70;;;25.50;89.00;;;;;;6177976;28;89451;-65
2022/07/20 13:00:25;;;;;;;4.10;3.67;;;25.50;89.20;;;;;;6176234;28;88003;-66
2022/07/20 13:03:27;;;;;;;6.00;3.97;;;25.50;89.40;;;;;;6157070;28;90011;-65
2022/07/20 13:06:32;;;;;;;4.32;3.90;;;25.60;89.70;;;;;;6159167;28;90027;-65
2022/07/20 13:09:34;;;;;;;4.20;3.80;;;25.60;89.80;;;;;;6158676;28;89118;-66
2022/07/20 13:12:36;;;;;;;4.72;3.85;;;25.60;89.90;;;;;;6159278;28;89021;-65
2022/07/20 13:15:38;;;;;;;5.18;4.10;;;25.60;89.90;;;;;;6169975;28;87984;-65
2022/07/20 13:18:40;;;;;;;4.72;4.22;;;25.60;89.80;;;;;;6170424;28;89390;-65
2022/07/20 13:21:44;;;;;;;6.55;4.50;;;25.60;89.50;;;;;;6181569;28;89083;-65
2022/07/20 13:24:46;;;;;;;5.88;4.07;;;25.60;89.50;;;;;;6168500;28;88274;-66
2022/07/20 13:27:48;;;;;;;4.80;3.92;;;25.60;89.50;;;;;;6157225;28;88970;-65
2022/07/20 13:30:51;;;;;;;5.40;3.95;;;25.60;90.10;;;;;;6166856;28;89091;-65
2022/07/20 13:33:53;;;;;;;4.18;3.78;;;25.60;89.50;;;;;;6157458;28;90299;-65
2022/07/20 13:36:57;;;;;;;6.20;4.30;;;25.60;89.60;;;;;;6156855;28;89195;-65
2022/07/20 13:39:59;;;;;;;3.97;3.67;;;25.60;89.70;;;;;;6161014;28;89455;-66
2022/07/20 13:43:01;;;;;;;4.72;4.13;;;25.60;89.70;;;;;;6181969;28;88980;-65
2022/07/20 13:46:03;;;;;;;4.13;3.67;;;25.60;89.90;;;;;;6167901;28;89098;-65
2022/07/20 13:49:05;;;;;;;5.47;4.10;;;25.60;90.00;;;;;;6178966;28;88957;-65
2022/07/20 13:52:09;;;;;;;4.07;3.67;;;25.60;90.00;;;;;;6169792;28;89138;-65
2022/07/20 13:55:12;;;;;;;5.30;3.85;;;25.60;90.10;;;;;;6174796;28;88400;-65
2022/07/20 13:58:14;;;;;;;4.32;3.92;;;25.70;90.20;;;;;;6184852;28;89077;-65
2022/07/20 14:01:16;;;;;;;4.72;4.00;;;25.70;90.40;;;;;;6172397;28;89118;-66
2022/07/20 14:04:18;;;;;;;4.53;3.92;;;25.70;90.40;;;;;;6170411;28;89986;-65
2022/07/20 14:07:22;;;;;;;3.92;3.63;;;25.70;90.50;;;;;;6180521;28;89014;-66
2022/07/20 14:10:24;;;;;;;4.25;3.95;;;25.70;90.40;;;;;;6183171;28;89097;-65
2022/07/20 14:13:26;;;;;;;4.35;3.95;;;25.70;90.40;;;;;;6188451;28;89138;-66
2022/07/20 14:16:28;;;;;;;4.93;3.78;;;25.70;90.40;;;;;;6179888;28;89068;-65
2022/07/20 14:19:30;;;;;;;4.55;4.15;;;25.70;90.40;;;;;;6162040;28;89107;-65
2022/07/20 14:22:33;;;;;;;5.63;4.10;;;25.70;90.40;;;;;;6181827;28;89177;-65
2022/07/20 14:25:36;;;;;;;4.35;3.95;;;25.70;90.40;;;;;;6172937;28;88882;-65
2022/07/20 14:28:38;;;;;;;4.03;3.58;;;25.70;90.40;;;;;;6182492;28;89122;-65
2022/07/20 14:31:40;;;;;;;5.70;3.67;;;25.70;90.50;;;;;;6177789;28;89073;-65
2022/07/20 14:34:42;;;;;;;4.03;3.58;;;25.70;90.50;;;;;;6165786;28;90035;-66
2022/07/20 14:37:46;;;;;;;4.28;3.85;;;25.70;90.60;;;;;;6170907;28;89115;-66
2022/07/20 14:40:48;;;;;;;5.70;3.85;;;25.70;90.60;;;;;;6177453;28;89163;-65
2022/07/20 14:43:50;;;;;;;4.40;4.00;;;25.70;90.50;;;;;;6182615;28;89089;-65
2022/07/20 14:46:52;;;;;;;4.25;3.92;;;25.70;90.50;;;;;;6171865;28;89166;-66
2022/07/20 14:49:54;;;;;;;4.40;4.00;;;25.70;90.40;;;;;;6182996;28;89208;-66
2022/07/20 14:52:58;;;;;;;4.45;4.05;;;25.80;90.40;;;;;;6182664;28;89415;-66
2022/07/20 14:56:00;;;;;;;4.32;3.72;;;25.80;90.40;;;;;;6183641;28;88812;-66
2022/07/20 14:59:03;;;;;;;4.18;3.78;;;25.70;90.30;;;;;;6164738;28;88867;-65
2022/07/20 15:02:05;;;;;;;4.05;3.67;;;25.70;90.30;;;;;;6163629;28;89156;-65
2022/07/20 15:05:07;;;;;;;4.82;4.22;;;25.80;90.40;;;;;;6180451;28;90346;-66
2022/07/20 15:08:11;;;;;;;4.80;4.30;;;25.70;90.40;;;;;;6172487;28;89203;-66
2022/07/20 15:11:13;;;;;;;4.88;3.95;;;25.80;90.50;;;;;;6181971;28;88301;-65
2022/07/20 15:14:16;;;;;;;4.55;4.15;;;25.80;90.50;;;;;;6160734;28;89349;-65
2022/07/20 15:17:18;;;;;;;4.30;3.90;;;25.70;90.40;;;;;;6180961;28;89097;-65
2022/07/20 15:20:20;;;;;;;4.45;3.65;;;25.70;90.40;;;;;;6178811;28;89498;-65
2022/07/20 15:23:23;;;;;;;5.18;3.92;;;25.80;90.40;;;;;;6181876;28;88272;-65
2022/07/20 15:26:27;;;;;;;4.43;4.03;;;25.70;90.40;;;;;;6184274;28;88424;-66
2022/07/20 15:29:29;;;;;;;4.20;3.80;;;25.80;90.30;;;;;;6171731;28;89154;-65
2022/07/20 15:32:31;;;;;;;3.92;3.60;;;25.80;90.30;;;;;;6159546;28;89065;-65
2022/07/20 15:35:33;;;;;;;5.10;3.72;;;25.80;90.20;;;;;;6159688;28;90050;-65
2022/07/20 15:38:37;;;;;;;5.57;4.18;;;25.80;90.20;;;;;;6176995;28;89453;-65
2022/07/20 15:41:39;;;;;;;4.82;3.90;;;25.80;90.20;;;;;;6182785;28;88688;-65
2022/07/20 15:44:42;;;;;;;5.35;4.30;;;25.80;90.20;;;;;;6170476;28;89162;-65
2022/07/20 15:47:46;;;;;;;4.57;3.65;;;25.80;90.20;;;;;;6182250;28;89294;-66
2022/07/20 15:50:48;;;;;;;5.72;4.50;;;25.80;90.20;;;;;;6170255;28;89155;-65
2022/07/20 15:53:52;;;;;;;4.28;3.88;;;25.80;90.30;;;;;;6174569;28;89055;-65
2022/07/20 16:00:15;;;;;;;4.40;4.00;;;25.80;90.40;;;;;;6179560;28;87248;-65
2022/07/20 16:03:17;;;;;;;5.13;3.80;;;25.80;90.40;;;;;;6169977;28;90023;-65